createdAt,value
2018-07-19T00:01:48.576Z,82.90
2018-07-19T00:04:15.516Z,82.50
2018-07-19T00:06:42.389Z,82.90
2018-07-19T00:09:10.122Z,84.60
2018-07-19T00:11:37.009Z,84.60
2018-07-19T00:14:04.016Z,84.40
2018-07-19T00:16:30.912Z,85.80
2018-07-19T00:18:57.930Z,86.90
2018-07-19T00:21:24.792Z,87.50
2018-07-19T00:23:51.753Z,87.70
2018-07-19T00:26:18.616Z,87.60
2018-07-19T00:28:45.584Z,88.90
2018-07-19T00:31:12.466Z,88.90
2018-07-19T00:33:39.327Z,89.00
2018-07-19T00:36:07.015Z,90.20
2018-07-19T00:38:33.929Z,90.20
2018-07-19T00:41:00.927Z,90.80
2018-07-19T00:43:27.816Z,90.80
2018-07-19T00:45:54.756Z,91.00
2018-07-19T00:48:21.627Z,91.30
2018-07-19T00:50:48.613Z,91.50
2018-07-19T00:53:15.516Z,91.80
2018-07-19T00:55:43.189Z,92.50
2018-07-19T00:58:10.081Z,92.50
2018-07-19T01:00:37.033Z,92.10
2018-07-19T01:03:04.000Z,92.40
2018-07-19T01:05:30.991Z,92.40
2018-07-19T01:07:57.850Z,92.90
2018-07-19T01:10:24.773Z,92.50
2018-07-19T01:12:51.616Z,93.00
2018-07-19T01:15:18.617Z,93.10
2018-07-19T01:17:45.555Z,93.30
2018-07-19T01:20:12.502Z,93.60
2018-07-19T01:22:40.228Z,93.60
2018-07-19T01:25:07.177Z,93.60
2018-07-19T01:27:34.041Z,93.90
2018-07-19T01:30:01.017Z,94.10
2018-07-19T01:32:27.876Z,94.40
2018-07-19T01:34:54.807Z,94.40
2018-07-19T01:37:21.673Z,94.30
2018-07-19T01:39:49.346Z,94.70
2018-07-19T01:42:25.155Z,94.90
2018-07-19T01:44:52.098Z,94.90
2018-07-19T01:47:19.755Z,95.30
2018-07-19T01:49:46.689Z,95.30
2018-07-19T01:52:13.588Z,95.20
2018-07-19T01:54:40.521Z,95.90
2018-07-19T01:57:07.496Z,95.80
2018-07-19T01:59:34.385Z,96.10
2018-07-19T02:02:01.321Z,96.40
2018-07-19T02:04:28.195Z,96.50
2018-07-19T02:06:55.180Z,96.60
2018-07-19T02:09:22.777Z,97.00
2018-07-19T02:11:49.713Z,97.00
2018-07-19T02:14:16.625Z,97.50
2018-07-19T02:16:43.592Z,97.10
2018-07-19T02:19:10.463Z,97.20
2018-07-19T02:21:37.401Z,97.20
2018-07-19T02:24:04.378Z,97.20
2018-07-19T02:26:31.428Z,97.40
2018-07-19T02:28:58.289Z,97.20
2018-07-19T02:31:25.264Z,97.40
2018-07-19T02:33:52.148Z,97.60
2018-07-19T02:36:19.070Z,97.60
2018-07-19T02:38:45.965Z,97.60
2018-07-19T02:41:13.006Z,97.80
2018-07-19T02:43:39.869Z,98.10
2018-07-19T02:46:06.836Z,98.00
2018-07-19T02:48:33.713Z,98.00
2018-07-19T02:51:00.641Z,98.50
2018-07-19T02:53:27.516Z,98.30
2018-07-19T02:55:54.435Z,98.60
2018-07-19T02:58:21.292Z,98.60
2018-07-19T03:00:48.229Z,98.70
2018-07-19T03:03:15.132Z,98.60
2018-07-19T03:05:42.094Z,98.90
2018-07-19T03:08:09.687Z,99.00
2018-07-19T03:10:36.618Z,98.90
2018-07-19T03:13:03.472Z,99.10
2018-07-19T03:15:30.405Z,99.20
2018-07-19T03:17:57.269Z,99.40
2018-07-19T03:20:24.358Z,99.40
2018-07-19T03:22:51.309Z,99.50
2018-07-19T03:25:18.153Z,99.90
2018-07-19T03:27:45.104Z,99.70
2018-07-19T03:30:11.975Z,99.80
2018-07-19T03:32:38.896Z,99.90
2018-07-19T03:35:05.812Z,99.90
2018-07-19T03:37:32.729Z,99.90
2018-07-19T03:39:59.606Z,99.90
2018-07-19T03:42:26.574Z,99.90
2018-07-19T03:44:53.421Z,99.90
2018-07-19T03:47:21.100Z,99.90
2018-07-19T03:49:48.016Z,99.90
2018-07-19T03:52:14.946Z,99.90
2018-07-19T03:54:41.825Z,99.90
2018-07-19T03:57:08.796Z,99.90
2018-07-19T03:59:35.660Z,99.90
2018-07-19T04:02:02.682Z,99.90
2018-07-19T04:04:30.313Z,99.90
2018-07-19T04:06:57.236Z,99.90
2018-07-19T04:09:24.097Z,99.90
2018-07-19T04:11:51.033Z,99.90
2018-07-19T04:14:17.927Z,99.90
2018-07-19T04:16:44.848Z,99.90
2018-07-19T04:19:12.463Z,99.90
2018-07-19T04:21:39.380Z,99.90
2018-07-19T04:24:06.354Z,99.90
2018-07-19T04:26:34.760Z,99.90
2018-07-19T04:29:08.174Z,99.90
2018-07-19T04:31:35.136Z,99.90
2018-07-19T04:34:02.029Z,99.90
2018-07-19T04:36:29.004Z,99.90
2018-07-19T04:38:55.863Z,99.90
2018-07-19T04:41:22.875Z,99.90
2018-07-19T04:43:50.624Z,99.90
2018-07-19T04:46:17.519Z,99.90
2018-07-19T04:48:45.185Z,99.70
2018-07-19T04:51:12.091Z,99.50
2018-07-19T04:53:39.013Z,97.60
2018-07-19T04:56:05.875Z,95.60
2018-07-19T04:58:32.809Z,94.40
2018-07-19T05:00:59.744Z,91.80
2018-07-19T05:03:26.659Z,89.20
2018-07-19T05:05:53.528Z,85.90
2018-07-19T05:08:20.469Z,84.40
2018-07-19T05:10:47.376Z,82.00
2018-07-19T05:13:14.330Z,77.30
2018-07-19T05:15:41.200Z,73.90
2018-07-19T05:18:08.126Z,70.00
2018-07-19T05:20:35.064Z,68.10
2018-07-19T05:23:01.981Z,66.10
2018-07-19T05:25:28.991Z,65.10
2018-07-19T05:27:55.908Z,63.90
2018-07-19T05:30:22.808Z,65.40
2018-07-19T05:32:49.744Z,65.30
2018-07-19T05:35:16.609Z,65.90
2018-07-19T05:37:43.560Z,67.90
2018-07-19T05:40:11.234Z,69.40
2018-07-19T05:42:38.232Z,69.50
2018-07-19T05:45:05.137Z,71.50
2018-07-19T05:47:32.061Z,71.50
2018-07-19T05:49:58.916Z,70.70
2018-07-19T05:52:26.639Z,77.00
2018-07-19T05:54:53.516Z,77.00
2018-07-19T05:57:20.437Z,79.40
2018-07-19T05:59:47.361Z,81.80
2018-07-19T06:02:14.964Z,84.90
2018-07-19T06:04:41.887Z,84.10
2018-07-19T06:07:08.842Z,84.00
2018-07-19T06:09:35.789Z,83.60
2018-07-19T06:12:02.704Z,82.80
2018-07-19T06:14:29.629Z,85.60
2018-07-19T06:16:56.552Z,87.60
2018-07-19T06:19:23.533Z,88.90
2018-07-19T06:21:51.132Z,91.00
2018-07-19T06:24:18.137Z,91.00
2018-07-19T06:26:45.065Z,91.10
2018-07-19T06:29:11.984Z,91.10
2018-07-19T06:31:38.926Z,91.80
2018-07-19T06:34:05.881Z,91.80
2018-07-19T06:36:32.761Z,92.50
2018-07-19T06:38:59.735Z,92.20
2018-07-19T06:41:26.693Z,93.30
2018-07-19T06:43:53.623Z,93.50
2018-07-19T06:46:20.572Z,92.80
2018-07-19T06:48:47.510Z,92.10
2018-07-19T06:51:14.442Z,93.00
2018-07-19T06:53:41.417Z,93.10
2018-07-19T06:56:08.312Z,92.60
2018-07-19T06:58:35.251Z,92.80
2018-07-19T07:01:02.980Z,92.40
2018-07-19T07:03:29.933Z,92.40
2018-07-19T07:05:56.827Z,92.50
2018-07-19T07:08:24.505Z,93.10
2018-07-19T07:10:51.403Z,93.10
2018-07-19T07:13:18.352Z,92.90
2018-07-19T07:15:45.224Z,93.00
2018-07-19T07:18:12.144Z,92.80
2018-07-19T07:20:39.105Z,93.20
2018-07-19T07:23:06.095Z,93.00
2018-07-19T07:25:33.796Z,93.00
2018-07-19T07:28:00.669Z,93.00
2018-07-19T07:30:27.620Z,93.00
2018-07-19T07:32:55.232Z,92.40
2018-07-19T07:35:22.180Z,92.40
2018-07-19T07:37:49.068Z,91.60
2018-07-19T07:40:16.777Z,92.30
2018-07-19T07:42:43.709Z,92.30
2018-07-19T07:45:10.679Z,91.50
2018-07-19T07:47:37.565Z,91.50
2018-07-19T07:50:04.526Z,90.30
2018-07-19T07:52:31.462Z,89.40
2018-07-19T07:54:58.383Z,90.70
2018-07-19T07:57:25.292Z,89.60
2018-07-19T07:59:52.242Z,87.70
2018-07-19T08:02:19.145Z,87.30
2018-07-19T08:04:46.092Z,89.00
2018-07-19T08:07:12.967Z,87.40
2018-07-19T08:09:39.942Z,85.10
2018-07-19T08:12:06.861Z,83.90
2018-07-19T08:14:33.831Z,85.30
2018-07-19T08:17:00.750Z,85.50
2018-07-19T08:19:27.687Z,82.30
2018-07-19T08:21:54.568Z,80.60
2018-07-19T08:24:21.537Z,74.40
2018-07-19T08:26:48.541Z,72.20
2018-07-19T08:29:15.500Z,69.60
2018-07-19T08:31:42.423Z,68.80
2018-07-19T08:34:09.354Z,65.10
2018-07-19T08:36:36.996Z,56.30
2018-07-19T08:39:04.080Z,56.20
2018-07-19T08:41:31.022Z,60.60
2018-07-19T08:43:58.705Z,61.80
2018-07-19T08:46:25.659Z,62.00
2018-07-19T08:48:52.536Z,60.20
2018-07-19T08:51:19.476Z,56.60
2018-07-19T08:53:46.416Z,55.10
2018-07-19T08:56:13.373Z,55.00
2018-07-19T08:58:40.240Z,54.90
2018-07-19T09:01:07.248Z,55.90
2018-07-19T09:03:34.135Z,54.00
2018-07-19T09:06:01.104Z,52.20
2018-07-19T09:08:28.044Z,53.10
2018-07-19T09:10:55.716Z,53.80
2018-07-19T09:13:22.589Z,53.80
2018-07-19T09:15:49.536Z,55.00
2018-07-19T09:18:16.469Z,54.30
2018-07-19T09:20:43.407Z,52.70
2018-07-19T09:23:10.273Z,52.10
2018-07-19T09:25:37.221Z,54.20
2018-07-19T09:28:04.175Z,53.70
2018-07-19T09:30:31.091Z,52.10
2018-07-19T09:32:58.018Z,54.00
2018-07-19T09:35:25.013Z,53.60
2018-07-19T09:37:51.924Z,52.90
2018-07-19T09:40:18.868Z,51.80
2018-07-19T09:42:46.557Z,51.20
2018-07-19T09:45:13.495Z,51.20
2018-07-19T09:47:40.420Z,50.70
2018-07-19T09:50:07.357Z,52.80
2018-07-19T09:52:35.001Z,49.70
2018-07-19T09:55:02.002Z,49.50
2018-07-19T09:57:28.865Z,48.20
2018-07-19T09:59:55.813Z,51.50
2018-07-19T10:02:22.693Z,48.50
2018-07-19T10:04:49.596Z,50.40
2018-07-19T10:07:16.553Z,48.30
2018-07-19T10:09:43.446Z,50.50
2018-07-19T10:12:10.374Z,49.50
2018-07-19T10:14:37.308Z,48.40
2018-07-19T10:17:04.320Z,47.40
2018-07-19T10:19:31.199Z,48.30
2018-07-19T10:21:58.136Z,49.40
2018-07-19T10:24:25.049Z,50.00
2018-07-19T10:26:52.000Z,50.10
2018-07-19T10:29:18.948Z,48.80
2018-07-19T10:31:45.883Z,49.50
2018-07-19T10:34:12.769Z,48.60
2018-07-19T10:36:39.769Z,48.90
2018-07-19T10:39:06.729Z,48.70
2018-07-19T10:41:33.741Z,48.80
2018-07-19T10:44:00.620Z,47.50
2018-07-19T10:46:27.531Z,48.10
2018-07-19T10:48:54.438Z,48.20
2018-07-19T10:51:21.368Z,46.70
2018-07-19T10:53:48.205Z,48.60
2018-07-19T10:56:15.144Z,48.50
2018-07-19T10:58:42.000Z,48.70
2018-07-19T11:01:08.916Z,46.60
2018-07-19T11:03:35.781Z,46.80
2018-07-19T11:06:02.797Z,46.40
2018-07-19T11:08:29.645Z,45.60
2018-07-19T11:10:56.553Z,46.90
2018-07-19T11:13:23.404Z,46.30
2018-07-19T11:15:50.309Z,47.60
2018-07-19T11:18:17.148Z,47.40
2018-07-19T11:20:44.051Z,47.40
2018-07-19T11:23:10.922Z,47.30
2018-07-19T11:25:37.868Z,47.80
2018-07-19T11:28:04.801Z,46.50
2018-07-19T11:30:32.404Z,47.00
2018-07-19T11:32:59.317Z,46.90
2018-07-19T11:35:26.930Z,46.70
2018-07-19T11:37:53.843Z,46.60
2018-07-19T11:40:20.697Z,47.50
2018-07-19T11:42:47.677Z,47.30
2018-07-19T11:45:14.525Z,48.10
2018-07-19T11:47:41.436Z,46.60
2018-07-19T11:50:08.335Z,47.90
2018-07-19T11:52:35.980Z,48.10
2018-07-19T11:55:02.922Z,48.10
2018-07-19T11:57:29.848Z,46.80
2018-07-19T11:59:56.716Z,47.60
2018-07-19T12:02:23.636Z,47.40
2018-07-19T12:04:50.493Z,47.40
2018-07-19T12:07:17.466Z,47.70
2018-07-19T12:09:44.335Z,48.80
2018-07-19T12:12:11.277Z,48.00
2018-07-19T12:14:38.135Z,48.00
2018-07-19T12:17:05.067Z,47.00
2018-07-19T12:19:31.966Z,47.00
2018-07-19T12:21:58.905Z,48.20
2018-07-19T12:24:25.761Z,49.00
2018-07-19T12:26:52.665Z,48.30
2018-07-19T12:29:19.569Z,47.80
2018-07-19T12:31:47.280Z,45.70
2018-07-19T12:34:14.135Z,45.60
2018-07-19T12:36:41.033Z,47.20
2018-07-19T12:39:08.652Z,48.20
2018-07-19T12:41:35.625Z,47.50
2018-07-19T12:44:02.501Z,49.00
2018-07-19T12:46:29.365Z,49.10
2018-07-19T12:48:56.307Z,46.80
2018-07-19T12:51:23.212Z,46.50
2018-07-19T12:53:50.137Z,46.90
2018-07-19T12:56:16.993Z,46.80
2018-07-19T12:58:43.904Z,46.30
2018-07-19T13:01:10.773Z,46.00
2018-07-19T13:03:37.730Z,46.60
2018-07-19T13:06:04.627Z,44.40
2018-07-19T13:08:31.621Z,45.70
2018-07-19T13:10:58.511Z,46.80
2018-07-19T13:13:25.431Z,45.50
2018-07-19T13:15:53.032Z,46.00
2018-07-19T13:18:19.953Z,45.90
2018-07-19T13:20:46.809Z,45.70
2018-07-19T13:23:13.740Z,46.20
2018-07-19T13:25:40.589Z,45.30
2018-07-19T13:28:07.551Z,46.10
2018-07-19T13:30:34.429Z,45.50
2018-07-19T13:33:01.364Z,44.40
2018-07-19T13:35:28.239Z,43.80
2018-07-19T13:37:55.179Z,43.30
2018-07-19T13:40:22.135Z,43.90
2018-07-19T13:42:49.114Z,43.90
2018-07-19T13:45:16.457Z,44.40
2018-07-19T13:47:43.419Z,43.50
2018-07-19T13:50:10.328Z,43.10
2018-07-19T13:52:37.377Z,44.40
2018-07-19T13:55:04.278Z,44.30
2018-07-19T13:57:31.134Z,44.70
2018-07-19T13:59:58.062Z,43.90
2018-07-19T14:02:24.926Z,44.00
2018-07-19T14:04:51.841Z,43.70
2018-07-19T14:07:18.690Z,44.10
2018-07-19T14:09:45.616Z,44.10
2018-07-19T14:12:12.479Z,43.60
2018-07-19T14:14:39.428Z,44.60
2018-07-19T14:17:06.291Z,42.40
2018-07-19T14:19:33.229Z,43.30
2018-07-19T14:22:00.142Z,43.60
2018-07-19T14:24:27.073Z,43.50
2018-07-19T14:26:54.724Z,42.60
2018-07-19T14:29:21.650Z,42.60
2018-07-19T14:31:48.517Z,42.60
2018-07-19T14:34:15.492Z,42.50
2018-07-19T14:36:42.385Z,43.80
2018-07-19T14:39:09.369Z,43.40
2018-07-19T14:41:37.025Z,43.70
2018-07-19T14:44:03.991Z,43.70
2018-07-19T14:46:30.855Z,43.20
2018-07-19T14:48:57.799Z,41.30
2018-07-19T14:51:24.677Z,43.40
2018-07-19T14:53:51.614Z,44.40
2018-07-19T14:56:18.465Z,43.70
2018-07-19T14:58:45.388Z,42.30
2018-07-19T15:01:12.262Z,42.60
2018-07-19T15:03:39.188Z,41.90
2018-07-19T15:06:06.068Z,42.70
2018-07-19T15:08:33.725Z,43.50
2018-07-19T15:11:00.600Z,43.50
2018-07-19T15:13:27.520Z,42.70
2018-07-19T15:15:55.145Z,43.20
2018-07-19T15:18:22.033Z,43.20
2018-07-19T15:20:49.707Z,43.10
2018-07-19T15:23:16.577Z,43.10
2018-07-19T15:25:43.492Z,45.70
2018-07-19T15:28:10.389Z,44.70
2018-07-19T15:30:37.301Z,44.80
2018-07-19T15:33:04.225Z,46.30
2018-07-19T15:35:31.885Z,45.70
2018-07-19T15:37:58.747Z,45.60
2018-07-19T15:40:25.668Z,45.50
2018-07-19T15:42:52.581Z,45.40
2018-07-19T15:45:19.528Z,44.70
2018-07-19T15:47:46.384Z,44.50
2018-07-19T15:50:13.300Z,45.40
2018-07-19T15:52:40.172Z,44.50
2018-07-19T15:55:07.148Z,44.90
2018-07-19T15:57:34.783Z,45.20
2018-07-19T16:00:01.700Z,45.10
2018-07-19T16:02:28.576Z,45.30
2018-07-19T16:04:55.493Z,45.10
2018-07-19T16:07:22.358Z,45.90
2018-07-19T16:09:49.264Z,45.00
2018-07-19T16:12:16.150Z,45.00
2018-07-19T16:14:43.081Z,44.60
2018-07-19T16:17:09.944Z,44.00
2018-07-19T16:19:36.853Z,44.60
2018-07-19T16:22:03.717Z,45.20
2018-07-19T16:24:30.665Z,45.20
2018-07-19T16:26:57.542Z,45.10
2018-07-19T16:29:24.464Z,45.00
2018-07-19T16:31:51.319Z,43.90
2018-07-19T16:34:18.259Z,44.20
2018-07-19T16:36:45.113Z,44.30
2018-07-19T16:39:11.973Z,44.40
2018-07-19T16:41:39.704Z,43.80
2018-07-19T16:44:06.581Z,43.80
2018-07-19T16:46:34.266Z,44.30
2018-07-19T16:49:01.130Z,44.30
2018-07-19T16:51:28.072Z,44.30
2018-07-19T16:53:54.911Z,43.20
2018-07-19T16:56:21.850Z,44.20
2018-07-19T16:58:48.744Z,44.50
2018-07-19T17:01:15.647Z,44.10
2018-07-19T17:03:42.508Z,43.90
2018-07-19T17:06:10.200Z,44.20
2018-07-19T17:08:37.085Z,44.10
2018-07-19T17:11:04.065Z,44.30
2018-07-19T17:13:30.976Z,43.50
2018-07-19T17:15:57.914Z,43.30
2018-07-19T17:18:25.524Z,44.30
2018-07-19T17:20:52.437Z,44.20
2018-07-19T17:23:19.305Z,43.50
2018-07-19T17:25:46.249Z,43.70
2018-07-19T17:28:13.116Z,43.30
2018-07-19T17:30:40.052Z,43.80
2018-07-19T17:33:06.901Z,43.10
2018-07-19T17:35:33.800Z,43.50
2018-07-19T17:38:07.685Z,44.50
2018-07-19T17:40:34.674Z,43.90
2018-07-19T17:43:01.648Z,42.70
2018-07-19T17:45:28.588Z,43.40
2018-07-19T17:47:55.441Z,44.20
2018-07-19T17:50:22.389Z,44.20
2018-07-19T17:52:49.300Z,44.10
2018-07-19T17:55:16.216Z,43.80
2018-07-19T17:57:43.849Z,43.80
2018-07-19T18:00:10.770Z,43.70
2018-07-19T18:02:37.644Z,43.70
2018-07-19T18:05:04.544Z,44.00
2018-07-19T18:07:31.460Z,43.70
2018-07-19T18:09:59.055Z,44.00
2018-07-19T18:12:25.976Z,44.00
2018-07-19T18:14:53.557Z,43.70
2018-07-19T18:17:20.473Z,43.70
2018-07-19T18:19:48.056Z,44.20
2018-07-19T18:22:15.032Z,44.20
2018-07-19T18:24:41.897Z,44.30
2018-07-19T18:27:08.805Z,44.40
2018-07-19T18:29:35.672Z,45.70
2018-07-19T18:32:02.596Z,44.90
2018-07-19T18:34:29.447Z,45.00
2018-07-19T18:36:56.360Z,45.40
2018-07-19T18:39:23.952Z,45.90
2018-07-19T18:41:50.933Z,45.90
2018-07-19T18:44:17.781Z,45.60
2018-07-19T18:46:44.717Z,45.70
2018-07-19T18:49:11.573Z,45.80
2018-07-19T18:51:38.496Z,45.50
2018-07-19T18:54:05.396Z,45.60
2018-07-19T18:56:32.324Z,45.70
2018-07-19T18:58:59.167Z,45.80
2018-07-19T19:01:26.114Z,45.90
2018-07-19T19:03:53.709Z,46.60
2018-07-19T19:06:20.628Z,46.00
2018-07-19T19:08:47.494Z,45.90
2018-07-19T19:11:14.413Z,45.90
2018-07-19T19:13:42.012Z,46.40
2018-07-19T19:16:08.969Z,46.30
2018-07-19T19:18:35.889Z,46.80
2018-07-19T19:21:02.823Z,47.00
2018-07-19T19:23:29.733Z,47.10
2018-07-19T19:25:56.749Z,47.60
2018-07-19T19:28:23.658Z,48.00
2018-07-19T19:30:50.529Z,47.50
2018-07-19T19:33:17.439Z,48.10
2018-07-19T19:35:45.033Z,49.10
2018-07-19T19:38:11.982Z,49.10
2018-07-19T19:40:39.011Z,49.20
2018-07-19T19:43:06.004Z,52.60
2018-07-19T19:45:32.845Z,53.10
2018-07-19T19:47:59.873Z,54.10
2018-07-19T19:50:26.733Z,54.50
2018-07-19T19:52:53.655Z,55.00
2018-07-19T19:55:20.528Z,55.50
2018-07-19T19:57:47.466Z,55.60
2018-07-19T20:00:14.340Z,56.10
2018-07-19T20:02:41.248Z,56.70
2018-07-19T20:05:08.109Z,56.90
2018-07-19T20:07:35.038Z,57.10
2018-07-19T20:10:01.945Z,57.00
2018-07-19T20:12:28.880Z,57.50
2018-07-19T20:14:56.468Z,57.90
2018-07-19T20:17:23.389Z,57.90
2018-07-19T20:19:50.988Z,58.70
2018-07-19T20:22:17.896Z,58.60
2018-07-19T20:24:45.522Z,59.10
2018-07-19T20:27:12.476Z,59.10
2018-07-19T20:29:39.353Z,59.10
2018-07-19T20:32:07.041Z,60.50
2018-07-19T20:34:33.922Z,60.40
2018-07-19T20:37:00.856Z,60.80
2018-07-19T20:39:27.721Z,60.50
2018-07-19T20:41:54.648Z,59.90
2018-07-19T20:44:21.573Z,61.20
2018-07-19T20:46:48.510Z,60.90
2018-07-19T20:49:15.432Z,61.60
2018-07-19T20:51:43.056Z,62.30
2018-07-19T20:54:09.971Z,62.30
2018-07-19T20:56:36.838Z,62.00
2018-07-19T20:59:03.770Z,62.50
2018-07-19T21:01:30.641Z,62.60
2018-07-19T21:03:57.555Z,63.50
2018-07-19T21:06:24.430Z,63.70
2018-07-19T21:08:51.360Z,64.80
2018-07-19T21:11:18.292Z,64.60
2018-07-19T21:13:45.252Z,64.90
2018-07-19T21:16:12.105Z,65.80
2018-07-19T21:18:39.021Z,66.80
2018-07-19T21:21:05.884Z,67.00
2018-07-19T21:23:32.814Z,67.00
2018-07-19T21:25:59.672Z,67.50
2018-07-19T21:28:26.589Z,67.80
2018-07-19T21:30:53.447Z,67.90
2018-07-19T21:33:20.364Z,67.70
2018-07-19T21:35:47.976Z,68.30
2018-07-19T21:38:14.889Z,68.30
2018-07-19T21:40:41.742Z,68.40
2018-07-19T21:43:08.721Z,68.40
2018-07-19T21:45:35.570Z,69.20
2018-07-19T21:48:02.530Z,68.70
2018-07-19T21:50:30.137Z,69.70
2018-07-19T21:52:57.053Z,69.70
2018-07-19T21:55:24.657Z,70.10
2018-07-19T21:57:51.499Z,70.00
2018-07-19T22:00:18.445Z,69.90
2018-07-19T22:02:45.315Z,69.80
2018-07-19T22:05:12.304Z,69.70
2018-07-19T22:07:39.168Z,69.70
2018-07-19T22:10:06.137Z,69.60
2018-07-19T22:12:33.784Z,71.80
2018-07-19T22:15:00.689Z,71.40
2018-07-19T22:17:28.293Z,73.10
2018-07-19T22:19:55.198Z,73.10
2018-07-19T22:22:22.809Z,70.80
2018-07-19T22:24:49.842Z,70.80
2018-07-19T22:27:16.708Z,71.70
2018-07-19T22:29:43.627Z,72.30
2018-07-19T22:32:10.493Z,72.50
2018-07-19T22:34:37.411Z,71.40
2018-07-19T22:37:04.312Z,71.90
2018-07-19T22:39:31.228Z,72.70
2018-07-19T22:41:58.072Z,73.60
2018-07-19T22:44:25.050Z,73.50
2018-07-19T22:46:51.903Z,73.20
2018-07-19T22:49:19.620Z,74.40
2018-07-19T22:51:46.478Z,73.70
2018-07-19T22:54:13.398Z,74.10
2018-07-19T22:56:40.269Z,74.10
2018-07-19T22:59:07.181Z,74.60
2018-07-19T23:01:34.067Z,75.60
2018-07-19T23:04:00.976Z,76.30
2018-07-19T23:06:27.895Z,77.00
2018-07-19T23:08:54.824Z,77.10
2018-07-19T23:11:22.416Z,78.40
2018-07-19T23:13:49.315Z,78.30
2018-07-19T23:16:16.160Z,79.00
2018-07-19T23:18:43.008Z,79.70
2018-07-19T23:21:09.912Z,80.50
2018-07-19T23:23:36.752Z,80.60
2018-07-19T23:26:03.736Z,82.00
2018-07-19T23:28:30.679Z,82.10
2018-07-19T23:30:57.660Z,82.80
2018-07-19T23:33:25.332Z,83.10
2018-07-19T23:35:53.052Z,83.60
2018-07-19T23:38:19.986Z,83.60
2018-07-19T23:40:46.973Z,84.00
2018-07-19T23:43:14.706Z,85.70
2018-07-19T23:45:41.685Z,85.70
2018-07-19T23:48:09.362Z,87.50
2018-07-19T23:50:36.280Z,87.40
2018-07-19T23:53:03.128Z,87.40
2018-07-19T23:55:30.037Z,88.90
2018-07-19T23:57:56.913Z,88.70
